Time;durP1;ratioP1;P1;durP2;ratioP2;P2;SDS_P1;SDS_P2;PMS_P1;PMS_P2;Temp;Humidity;BMP_temperature;BMP_pressure;BME280_temperature;BME280_humidity;BME280_pressure;Samples;Min_cycle;Max_cycle;Signal;HPM_P1;HPM_P2
2021/12/25 00:01:08;;;;;;;;;;;;;;;-20.40;59.28;97761.94;6397669;27;19923;-68
2021/12/25 00:04:12;;;;;;;;;;;;;;;-20.47;59.42;97759.78;6398440;27;19923;-68
2021/12/25 00:07:13;;;;;;;;;;;;;;;-20.63;59.52;97754.53;6398533;27;19923;-69
2021/12/25 00:10:14;;;;;;;;;;;;;;;-20.38;59.44;97754.53;6398747;27;19930;-69
2021/12/25 00:13:15;;;;;;;;;;;;;;;-20.67;59.80;97755.06;6398268;27;19984;-69
2021/12/25 00:16:16;;;;;;;;;;;;;;;-20.44;59.34;97759.13;6396927;27;19930;-68
2021/12/25 00:19:17;;;;;;;;;;;;;;;-20.51;59.32;97772.84;6397853;27;20288;-68
2021/12/25 00:22:19;;;;;;;;;;;;;;;-20.03;58.83;97774.44;6397604;27;20341;-69
2021/12/25 00:25:21;;;;;;;;;;;;;;;-20.10;58.86;97781.44;6397120;27;20376;-68
2021/12/25 00:31:52;;;;;;;;;;;;;;;-20.44;59.37;97775.00;6397057;27;19933;-67
2021/12/25 00:34:52;;;;;;;;;;;;;;;-20.37;59.68;97770.44;6397942;27;19923;-69
2021/12/25 00:37:58;;;;;;;;;;;;;;;-20.35;59.83;97768.88;6397998;27;19923;-68
2021/12/25 00:40:59;;;;;;;;;;;;;;;-20.35;60.01;97768.88;6396694;27;20405;-68
2021/12/25 00:44:00;;;;;;;;;;;;;;;-20.08;59.54;97755.72;6397624;27;19929;-69
2021/12/25 00:47:02;;;;;;;;;;;;;;;-20.13;59.38;97764.56;6397672;27;19929;-68
2021/12/25 00:50:04;;;;;;;;;;;;;;;-20.23;59.04;97767.22;6397492;27;20307;-68
2021/12/25 00:53:05;;;;;;;;;;;;;;;-20.09;60.30;97774.03;6396717;27;19923;-67
2021/12/25 00:56:09;;;;;;;;;;;;;;;-20.15;60.33;97773.63;6397597;27;20427;-68
2021/12/25 00:59:10;;;;;;;;;;;;;;;-19.80;59.46;97767.59;6396457;27;20383;-69
2021/12/25 01:02:14;;;;;;;;;;;;;;;-19.86;59.14;97759.69;6397742;27;20044;-69
2021/12/25 01:05:16;;;;;;;;;;;;;;;-19.86;59.19;97782.22;6397826;27;20418;-68
2021/12/25 01:08:17;;;;;;;;;;;;;;;-20.09;59.74;97791.56;6397554;27;19964;-68
2021/12/25 01:11:24;;;;;;;;;;;;;;;-20.09;59.91;97788.16;6397225;27;19927;-68
2021/12/25 01:14:40;;;;;;;;;;;;;;;-20.14;59.94;97795.38;6397369;27;19927;-69
2021/12/25 01:18:09;;;;;;;;;;;;;;;-19.98;59.34;97808.19;6397630;27;19923;-68
2021/12/25 01:31:22;;;;;;;;;;;;;;;-19.99;59.44;97813.94;6397381;27;19923;-67
2021/12/25 01:47:52;;;;;;;;;;;;;;;-20.48;60.40;97787.22;6401723;27;19931;-69
2021/12/25 01:50:54;;;;;;;;;;;;;;;-20.36;61.04;97789.69;6401752;27;19923;-68
2021/12/25 01:53:58;;;;;;;;;;;;;;;-20.14;60.94;97794.53;6401721;27;19942;-68
2021/12/25 01:57:02;;;;;;;;;;;;;;;-20.17;60.83;97796.03;6401627;27;19926;-68
2021/12/25 02:00:05;;;;;;;;;;;;;;;-20.13;60.63;97817.16;6401060;27;19930;-69
2021/12/25 02:03:08;;;;;;;;;;;;;;;-20.14;61.33;97815.41;6400789;27;19923;-69
2021/12/25 02:06:11;;;;;;;;;;;;;;;-20.09;61.08;97819.13;6400825;27;19923;-68
2021/12/25 02:09:14;;;;;;;;;;;;;;;-20.11;60.92;97815.63;6400193;27;19945;-68
2021/12/25 02:12:15;;;;;;;;;;;;;;;-20.03;61.23;97824.53;6401272;27;20507;-68
2021/12/25 02:15:21;;;;;;;;;;;;;;;-20.25;61.65;97827.19;6401311;27;19976;-68
2021/12/25 02:18:31;;;;;;;;;;;;;;;-20.03;60.85;97834.56;6400837;27;20306;-68
2021/12/25 02:21:37;;;;;;;;;;;;;;;-20.20;61.19;97830.03;6400742;27;20315;-67
2021/12/25 02:24:41;;;;;;;;;;;;;;;-19.85;60.75;97844.94;6401016;27;20312;-68
2021/12/25 02:27:44;;;;;;;;;;;;;;;-19.90;61.42;97850.41;6400676;27;19923;-68
2021/12/25 02:30:48;;;;;;;;;;;;;;;-19.90;61.23;97842.88;6400877;27;20007;-68
2021/12/25 02:33:49;;;;;;;;;;;;;;;-19.88;60.79;97841.38;6400740;27;20320;-68
2021/12/25 02:36:51;;;;;;;;;;;;;;;-20.19;61.54;97854.28;6400761;27;19927;-69
2021/12/25 02:39:52;;;;;;;;;;;;;;;-20.22;61.80;97846.56;6381806;27;20418;-69
2021/12/25 02:42:55;;;;;;;;;;;;;;;-20.21;61.21;97848.28;6399771;27;19930;-68
2021/12/25 02:45:56;;;;;;;;;;;;;;;-20.14;61.22;97849.59;6400126;27;19930;-68
2021/12/25 02:49:00;;;;;;;;;;;;;;;-20.02;61.65;97851.31;6400458;27;20122;-68
2021/12/25 02:52:01;;;;;;;;;;;;;;;-19.91;61.63;97859.56;6400332;27;20063;-67
2021/12/25 02:55:06;;;;;;;;;;;;;;;-19.89;60.67;97868.06;6400209;27;19923;-67
2021/12/25 02:58:07;;;;;;;;;;;;;;;-20.02;61.38;97856.31;6399557;27;19923;-68
2021/12/25 03:01:12;;;;;;;;;;;;;;;-20.06;61.23;97861.03;6399007;27;20006;-68
2021/12/25 03:04:15;;;;;;;;;;;;;;;-19.94;60.71;97862.72;6400036;27;20281;-68
2021/12/25 03:07:19;;;;;;;;;;;;;;;-20.18;61.55;97863.53;6399898;27;19923;-69
2021/12/25 03:10:22;;;;;;;;;;;;;;;-20.24;61.55;97863.09;6399893;27;19923;-68
2021/12/25 03:13:33;;;;;;;;;;;;;;;-20.07;61.46;97857.63;6399696;27;19984;-68
2021/12/25 03:16:34;;;;;;;;;;;;;;;-20.04;61.54;97851.97;6398987;27;19929;-68
2021/12/25 03:19:35;;;;;;;;;;;;;;;-20.13;61.82;97857.22;6399480;27;19922;-68
2021/12/25 03:22:39;;;;;;;;;;;;;;;-20.24;61.49;97860.59;6399577;27;19929;-68
2021/12/25 03:25:40;;;;;;;;;;;;;;;-20.41;61.05;97860.28;6398411;27;20276;-68
2021/12/25 03:28:50;;;;;;;;;;;;;;;-20.53;61.48;97861.97;6399679;27;19930;-68
2021/12/25 03:31:52;;;;;;;;;;;;;;;-20.40;62.21;97871.19;6399440;27;19930;-68
2021/12/25 03:34:55;;;;;;;;;;;;;;;-20.52;63.08;97871.19;6398726;27;19938;-68
2021/12/25 03:37:56;;;;;;;;;;;;;;;-20.50;63.07;97877.19;6399231;27;19923;-68
2021/12/25 03:40:57;;;;;;;;;;;;;;;-20.57;63.51;97885.06;6398244;27;20020;-68
2021/12/25 03:44:00;;;;;;;;;;;;;;;-20.12;62.93;97884.00;6398966;27;19934;-68
2021/12/25 03:47:14;;;;;;;;;;;;;;;-20.32;62.87;97884.22;6398921;27;20003;-69
2021/12/25 04:00:15;;;;;;;;;;;;;;;-20.53;63.05;97903.66;6398273;27;19930;-69
2021/12/25 04:03:29;;;;;;;;;;;;;;;-20.55;63.66;97898.53;6398488;27;20345;-69
2021/12/25 04:06:30;;;;;;;;;;;;;;;-20.56;63.92;97898.44;6398445;27;20086;-68
2021/12/25 04:09:35;;;;;;;;;;;;;;;-20.65;63.52;97896.16;6398359;27;19927;-70
2021/12/25 04:12:41;;;;;;;;;;;;;;;-20.47;63.75;97889.91;6380324;27;19923;-69
2021/12/25 04:15:42;;;;;;;;;;;;;;;-20.22;63.40;97896.63;6398140;27;19929;-69
2021/12/25 04:18:48;;;;;;;;;;;;;;;-20.26;64.02;97895.56;6398267;27;20407;-69
2021/12/25 04:22:06;;;;;;;;;;;;;;;-20.09;63.91;97909.25;6379873;27;19923;-69
2021/12/25 04:25:07;;;;;;;;;;;;;;;-20.01;62.79;97905.66;6398188;27;19923;-68
2021/12/25 04:28:27;;;;;;;;;;;;;;;-20.06;63.03;97919.50;6397760;27;20299;-68
2021/12/25 04:32:00;;;;;;;;;;;;;;;-20.00;62.66;97919.91;6397092;27;19923;-69
2021/12/25 05:02:00;;;;;;;;;;;;;;;-20.03;62.12;97952.25;6398025;27;19923;-68
2021/12/25 05:05:10;;;;;;;;;;;;;;;-20.02;61.99;97965.63;6397369;27;19929;-70
2021/12/25 05:08:14;;;;;;;;;;;;;;;-20.02;61.36;97976.53;6400399;27;19987;-68
2021/12/25 05:11:15;;;;;;;;;;;;;;;-20.30;62.19;97982.84;6402645;27;20007;-68
2021/12/25 05:14:19;;;;;;;;;;;;;;;-20.33;61.54;97968.47;6401202;27;20415;-68
2021/12/25 05:17:20;;;;;;;;;;;;;;;-20.18;61.72;97979.59;6402401;27;20010;-68
2021/12/25 05:20:22;;;;;;;;;;;;;;;-20.23;62.33;97970.88;6400422;27;19962;-69
2021/12/25 05:23:26;;;;;;;;;;;;;;;-20.38;61.75;97964.75;6402252;27;20307;-68
2021/12/25 05:26:30;;;;;;;;;;;;;;;-20.25;61.67;97967.38;6402066;27;19930;-68
2021/12/25 05:29:34;;;;;;;;;;;;;;;-20.32;62.02;97969.34;6402171;27;19923;-68
2021/12/25 05:32:38;;;;;;;;;;;;;;;-20.25;62.94;97971.53;6401795;27;19923;-68
2021/12/25 05:35:39;;;;;;;;;;;;;;;-19.81;61.93;97968.75;6400965;27;19923;-69
2021/12/25 05:38:42;;;;;;;;;;;;;;;-19.82;61.10;97964.53;6401790;27;19963;-69
2021/12/25 05:41:43;;;;;;;;;;;;;;;-19.75;61.67;97971.72;6401360;27;20007;-69
2021/12/25 05:44:44;;;;;;;;;;;;;;;-19.73;61.50;97975.19;6399374;27;19984;-68
2021/12/25 05:47:45;;;;;;;;;;;;;;;-19.59;61.73;97969.44;6401595;27;20291;-68
2021/12/25 05:50:46;;;;;;;;;;;;;;;-19.56;61.29;97972.16;6401444;27;20022;-69
2021/12/25 05:53:47;;;;;;;;;;;;;;;-19.44;61.25;97968.75;6401345;27;19923;-69
2021/12/25 05:56:48;;;;;;;;;;;;;;;-19.40;61.04;97966.56;6400997;27;19926;-69
2021/12/25 05:59:51;;;;;;;;;;;;;;;-18.97;60.57;97978.63;6401099;27;19922;-68
2021/12/25 06:02:55;;;;;;;;;;;;;;;-19.25;60.36;97964.22;6400810;27;19984;-69
2021/12/25 06:05:59;;;;;;;;;;;;;;;-19.28;60.93;97964.03;6400134;27;19937;-70
2021/12/25 06:09:07;;;;;;;;;;;;;;;-19.15;60.93;97964.09;6400935;27;19930;-71
2021/12/25 06:12:11;;;;;;;;;;;;;;;-19.01;60.62;97971.66;6401365;27;19934;-69
2021/12/25 06:15:15;;;;;;;;;;;;;;;-19.07;60.87;97978.00;6401129;27;19923;-70
2021/12/25 06:18:16;;;;;;;;;;;;;;;-19.04;60.57;97983.22;6400098;27;20324;-69
2021/12/25 06:21:20;;;;;;;;;;;;;;;-19.03;58.87;97974.94;6400582;27;19930;-69
2021/12/25 06:24:22;;;;;;;;;;;;;;;-19.49;60.10;97991.88;6400657;27;19930;-70
2021/12/25 06:27:25;;;;;;;;;;;;;;;-19.56;59.43;97994.72;6400337;27;19923;-68
2021/12/25 06:30:26;;;;;;;;;;;;;;;-19.66;58.05;97982.38;6399237;27;20335;-69
2021/12/25 06:33:27;;;;;;;;;;;;;;;-19.96;59.32;97976.94;6399291;27;19931;-69
2021/12/25 06:36:28;;;;;;;;;;;;;;;-19.84;59.72;97976.97;6399856;27;19927;-69
2021/12/25 06:39:30;;;;;;;;;;;;;;;-19.65;60.91;97981.59;6400433;27;19923;-69
2021/12/25 06:42:31;;;;;;;;;;;;;;;-19.43;59.93;97981.41;6400608;27;20312;-68
2021/12/25 06:45:33;;;;;;;;;;;;;;;-19.36;59.84;97977.66;6399742;27;20289;-69
2021/12/25 06:48:34;;;;;;;;;;;;;;;-19.11;59.71;97976.06;6400306;27;19930;-68
2021/12/25 06:51:37;;;;;;;;;;;;;;;-19.06;59.87;97984.75;6400298;27;20384;-69
2021/12/25 06:54:38;;;;;;;;;;;;;;;-18.59;59.61;97979.47;6400173;27;19927;-68
2021/12/25 06:57:52;;;;;;;;;;;;;;;-18.47;60.01;97978.53;6399286;27;20315;-69
2021/12/25 07:00:55;;;;;;;;;;;;;;;-18.18;58.61;97968.72;6399251;27;19923;-69
2021/12/25 07:03:58;;;;;;;;;;;;;;;-18.04;58.60;97968.72;6399819;27;19927;-69
2021/12/25 07:06:59;;;;;;;;;;;;;;;-18.14;58.74;97960.59;6399950;27;19923;-68
2021/12/25 07:10:02;;;;;;;;;;;;;;;-18.07;58.85;97948.44;6398765;27;20464;-69
2021/12/25 07:13:07;;;;;;;;;;;;;;;-17.87;58.01;97953.03;6399565;27;19986;-69
2021/12/25 07:16:08;;;;;;;;;;;;;;;-17.79;58.04;97953.53;6399097;27;19999;-69
2021/12/25 07:19:12;;;;;;;;;;;;;;;-17.87;58.30;97964.75;6399552;27;19923;-69
2021/12/25 07:22:13;;;;;;;;;;;;;;;-14.72;56.77;97956.41;6399165;27;19970;-70
2021/12/25 07:25:14;;;;;;;;;;;;;;;-9.23;47.41;97963.16;6399432;27;19923;-70
2021/12/25 07:28:15;;;;;;;;;;;;;;;-4.73;40.97;97965.94;6399058;27;20445;-69
2021/12/25 07:31:20;;;;;;;;;;;;;;;-1.23;36.01;97973.28;6379819;27;19923;-70
2021/12/25 07:34:21;;;;;;;;;;;;;;;1.40;33.61;97977.88;6399130;27;19967;-67
2021/12/25 07:37:22;;;;;;;;;;;;;;;2.53;30.68;97984.19;6398493;27;20452;-66
2021/12/25 07:40:23;;;;;;;;;;;;;;;3.58;29.84;97978.91;6397798;27;20018;-65
2021/12/25 07:43:24;;;;;;;;;;;;;;;4.11;29.92;97983.09;6398264;27;20288;-64
2021/12/25 07:46:31;;;;;;;;;;;;;;;5.69;29.33;97987.03;6398304;27;19919;-63
2021/12/25 07:49:32;;;;;;;;;;;;;;;7.36;28.62;97987.16;6397519;27;20350;-63
2021/12/25 07:52:35;;;;;;;;;;;;;;;8.98;24.96;97975.88;6397742;27;20397;-64
2021/12/25 07:55:36;;;;;;;;;;;;;;;9.52;25.77;97972.78;6396988;27;19926;-63
2021/12/25 07:58:37;;;;;;;;;;;;;;;9.86;26.58;97973.00;6396305;27;19930;-63
2021/12/25 08:01:40;;;;;;;;;;;;;;;10.32;24.39;97977.97;6397283;27;20303;-64
2021/12/25 08:04:41;;;;;;;;;;;;;;;9.72;25.28;97985.03;6398144;27;19923;-64
2021/12/25 08:07:42;;;;;;;;;;;;;;;10.02;24.72;97977.56;6397654;27;19977;-67
2021/12/25 08:10:45;;;;;;;;;;;;;;;9.97;24.39;97979.56;6380287;27;20002;-67
2021/12/25 08:13:49;;;;;;;;;;;;;;;9.53;25.98;97984.97;6397941;27;19923;-67
2021/12/25 08:16:53;;;;;;;;;;;;;;;10.56;24.65;97986.53;6397950;27;20416;-67
2021/12/25 08:19:54;;;;;;;;;;;;;;;10.98;23.92;97994.16;6396977;27;20374;-66
2021/12/25 08:22:56;;;;;;;;;;;;;;;10.37;22.62;98001.47;6396444;27;20014;-68
2021/12/25 08:25:56;;;;;;;;;;;;;;;9.62;24.04;97995.97;6396540;27;19922;-67
2021/12/25 08:28:57;;;;;;;;;;;;;;;10.42;24.01;98002.09;6396909;27;20306;-66
2021/12/25 08:32:01;;;;;;;;;;;;;;;11.48;23.82;98011.00;6397068;27;20361;-67
2021/12/25 08:35:04;;;;;;;;;;;;;;;11.07;21.12;97991.97;6397628;27;19968;-67
2021/12/25 08:38:05;;;;;;;;;;;;;;;10.87;21.99;97992.94;6397465;27;20023;-68
2021/12/25 08:41:08;;;;;;;;;;;;;;;11.17;19.86;98002.00;6396725;27;19930;-69
2021/12/25 08:47:44;;;;;;;;;;;;;;;11.99;20.73;97990.81;6375259;27;20226;-67
2021/12/25 08:50:48;;;;;;;;;;;;;;;11.68;16.22;97987.13;6397674;27;19945;-66
2021/12/25 08:53:49;;;;;;;;;;;;;;;9.64;18.58;97985.38;6397320;27;19926;-67
2021/12/25 08:56:53;;;;;;;;;;;;;;;9.22;18.54;97986.25;6397211;27;20303;-65
2021/12/25 08:59:57;;;;;;;;;;;;;;;8.21;18.82;97984.97;6397261;27;20402;-66
2021/12/25 09:03:01;;;;;;;;;;;;;;;9.10;20.39;97984.16;6396287;27;19927;-64
2021/12/25 09:06:04;;;;;;;;;;;;;;;9.74;20.37;97973.56;6397323;27;19923;-65
2021/12/25 09:09:07;;;;;;;;;;;;;;;10.49;19.50;97987.72;6397311;27;19919;-66
2021/12/25 09:12:11;;;;;;;;;;;;;;;10.61;20.23;97988.91;6397640;27;19931;-66
2021/12/25 09:15:13;;;;;;;;;;;;;;;9.19;19.77;97987.25;6396310;27;19930;-66
2021/12/25 09:18:14;;;;;;;;;;;;;;;8.34;20.24;97988.84;6396404;27;19925;-67
2021/12/25 09:21:15;;;;;;;;;;;;;;;7.67;19.03;97996.56;6396176;27;19923;-67
2021/12/25 09:24:18;;;;;;;;;;;;;;;7.25;20.04;97997.16;6396214;27;19923;-67
2021/12/25 09:27:19;;;;;;;;;;;;;;;7.35;18.80;97993.31;6395098;27;19934;-67
2021/12/25 09:30:23;;;;;;;;;;;;;;;7.07;18.45;97994.22;6396932;27;19923;-67
2021/12/25 09:33:30;;;;;;;;;;;;;;;7.07;19.89;97991.59;6396372;27;19918;-67
2021/12/25 09:36:35;;;;;;;;;;;;;;;7.27;19.23;97996.16;6396717;27;19922;-67
2021/12/25 09:39:40;;;;;;;;;;;;;;;7.32;19.66;97998.66;6397067;27;19922;-68
2021/12/25 09:42:43;;;;;;;;;;;;;;;7.62;19.95;97987.13;6396314;27;19923;-67
2021/12/25 09:45:46;;;;;;;;;;;;;;;7.91;19.80;98003.56;6395845;27;19923;-68
2021/12/25 09:48:50;;;;;;;;;;;;;;;7.39;19.49;98000.16;6396740;27;19930;-69
2021/12/25 09:51:54;;;;;;;;;;;;;;;7.25;20.79;98002.41;6396736;27;19923;-68
2021/12/25 09:54:55;;;;;;;;;;;;;;;7.27;20.23;97995.31;6401101;27;20295;-68
2021/12/25 09:58:02;;;;;;;;;;;;;;;6.72;18.07;97992.75;6401782;27;20079;-69
2021/12/25 10:01:03;;;;;;;;;;;;;;;5.05;19.67;97985.22;6401145;27;20285;-69
2021/12/25 10:04:06;;;;;;;;;;;;;;;4.68;21.46;97990.47;6400970;27;19923;-69
2021/12/25 10:07:28;;;;;;;;;;;;;;;4.04;21.09;97977.13;6382702;27;19930;-69
2021/12/25 10:10:50;;;;;;;;;;;;;;;0.86;22.25;97979.22;6400999;27;19930;-63
2021/12/25 10:13:53;;;;;;;;;;;;;;;-3.65;27.25;97974.00;6401041;27;19923;-63
2021/12/25 10:16:55;;;;;;;;;;;;;;;-6.41;32.08;97967.56;6399989;27;19922;-63
2021/12/25 10:20:14;;;;;;;;;;;;;;;-8.00;32.88;97984.44;6399923;27;20007;-62
2021/12/25 10:23:25;;;;;;;;;;;;;;;-9.20;35.25;97973.44;6400850;27;19930;-63
2021/12/25 10:26:28;;;;;;;;;;;;;;;-9.96;35.52;97974.47;6399726;27;19923;-63
2021/12/25 10:29:30;;;;;;;;;;;;;;;-10.47;36.07;97977.88;6399347;27;19926;-64
2021/12/25 10:32:37;;;;;;;;;;;;;;;-11.08;36.23;97975.66;6400584;27;19922;-64
2021/12/25 10:35:38;;;;;;;;;;;;;;;-11.47;36.00;97980.94;6399487;27;20018;-64
2021/12/25 10:38:56;;;;;;;;;;;;;;;-12.00;36.38;97979.69;6382554;27;20021;-63
2021/12/25 10:42:03;;;;;;;;;;;;;;;-12.60;36.92;97976.34;6399366;27;20442;-63
2021/12/25 10:45:07;;;;;;;;;;;;;;;-12.91;37.20;97975.00;6399170;27;19970;-62
2021/12/25 10:48:10;;;;;;;;;;;;;;;-13.24;36.97;97984.50;6399494;27;19990;-63
2021/12/25 10:51:31;;;;;;;;;;;;;;;-13.50;37.25;97974.09;6400251;27;19923;-63
2021/12/25 10:54:39;;;;;;;;;;;;;;;-13.70;37.75;97973.16;6400038;27;20509;-63
2021/12/25 10:57:41;;;;;;;;;;;;;;;-14.02;38.18;97975.00;6400308;27;19923;-64
2021/12/25 11:00:48;;;;;;;;;;;;;;;-14.21;38.06;97982.50;6399240;27;19988;-64
2021/12/25 11:03:52;;;;;;;;;;;;;;;-14.42;38.48;97991.56;6399165;27;20272;-63
2021/12/25 11:06:59;;;;;;;;;;;;;;;-14.71;38.76;97994.38;6399423;27;19923;-63
2021/12/25 11:10:06;;;;;;;;;;;;;;;-15.08;39.20;97996.66;6399154;27;19954;-65
2021/12/25 11:13:15;;;;;;;;;;;;;;;-15.30;39.90;98008.94;6399601;27;20512;-64
2021/12/25 11:19:34;;;;;;;;;;;;;;;-15.44;41.82;98006.53;6399750;27;19923;-64
2021/12/25 11:22:46;;;;;;;;;;;;;;;-16.08;42.65;98013.09;6399323;27;19992;-65
2021/12/25 11:25:47;;;;;;;;;;;;;;;-16.35;43.38;98012.41;6380001;27;20387;-63
2021/12/25 11:28:50;;;;;;;;;;;;;;;-16.59;43.99;98016.88;6399268;27;19926;-64
2021/12/25 11:31:52;;;;;;;;;;;;;;;-17.24;44.85;98010.53;6399051;27;19929;-64
2021/12/25 11:34:53;;;;;;;;;;;;;;;-17.34;45.55;98000.72;6399195;27;19923;-64
2021/12/25 11:37:55;;;;;;;;;;;;;;;-17.59;46.43;98007.53;6398328;27;19983;-64
2021/12/25 11:41:03;;;;;;;;;;;;;;;-17.92;47.14;98014.72;6398790;27;20018;-65
2021/12/25 11:44:25;;;;;;;;;;;;;;;-18.38;47.38;98020.16;6398998;27;20006;-64
2021/12/25 11:47:32;;;;;;;;;;;;;;;-18.60;47.53;98019.53;6398899;27;19930;-65
2021/12/25 11:50:42;;;;;;;;;;;;;;;-18.78;47.90;98016.72;6398982;27;19923;-65
2021/12/25 11:57:45;;;;;;;;;;;;;;;-18.64;47.69;98020.97;6397970;27;19927;-66
2021/12/25 12:00:33;;;;;;;;;;;;;;;-18.70;48.15;98020.56;6397413;27;19923;-65
2021/12/25 12:03:37;;;;;;;;;;;;;;;-18.66;48.86;98025.03;6397659;27;19923;-64
2021/12/25 12:06:47;;;;;;;;;;;;;;;-19.05;48.82;98019.13;6397119;27;19930;-63
2021/12/25 12:09:50;;;;;;;;;;;;;;;-19.22;48.82;98013.72;6398529;27;19930;-65
2021/12/25 12:13:11;;;;;;;;;;;;;;;-19.13;49.36;98017.75;6397583;27;19923;-64
2021/12/25 12:16:12;;;;;;;;;;;;;;;-18.92;50.33;98012.41;6396858;27;20424;-64
2021/12/25 12:19:32;;;;;;;;;;;;;;;-19.03;50.82;98009.19;6397254;27;20360;-63
2021/12/25 12:22:52;;;;;;;;;;;;;;;-18.94;51.89;98008.94;6396990;27;19923;-64
2021/12/25 12:26:04;;;;;;;;;;;;;;;-19.35;51.58;98004.50;6397002;27;19923;-63
2021/12/25 12:29:05;;;;;;;;;;;;;;;-19.11;52.02;97991.09;6397810;27;19929;-64
2021/12/25 12:32:06;;;;;;;;;;;;;;;-19.44;52.04;98002.25;6396739;27;19922;-64
2021/12/25 12:35:26;;;;;;;;;;;;;;;-19.54;51.84;97988.19;6396495;27;19926;-64
2021/12/25 12:38:38;;;;;;;;;;;;;;;-19.63;52.02;97977.53;6397593;27;19922;-65
2021/12/25 12:41:49;;;;;;;;;;;;;;;-19.74;51.68;97984.34;6397712;27;19927;-65
2021/12/25 12:45:06;;;;;;;;;;;;;;;-19.80;51.94;97998.09;6397798;27;19930;-64
2021/12/25 12:48:17;;;;;;;;;;;;;;;-19.76;51.87;98005.03;6396638;27;19930;-63
2021/12/25 12:51:19;;;;;;;;;;;;;;;-19.64;52.42;98005.88;6397672;27;19930;-65
2021/12/25 12:54:39;;;;;;;;;;;;;;;-19.69;51.86;98008.84;6397516;27;19929;-64
2021/12/25 12:57:42;;;;;;;;;;;;;;;-19.76;52.06;97995.00;6396577;27;19929;-65
2021/12/25 13:00:45;;;;;;;;;;;;;;;-19.78;51.92;98001.56;6397410;27;20312;-63
2021/12/25 13:03:46;;;;;;;;;;;;;;;-19.88;52.19;98010.06;6397411;27;19923;-63
2021/12/25 13:06:50;;;;;;;;;;;;;;;-19.94;52.55;98020.53;6396410;27;20315;-64
2021/12/25 13:10:01;;;;;;;;;;;;;;;-19.91;52.47;98029.88;6397104;27;20292;-64
2021/12/25 13:13:10;;;;;;;;;;;;;;;-19.88;52.38;98029.22;6397471;27;19923;-63
2021/12/25 13:16:14;;;;;;;;;;;;;;;-19.76;53.05;98032.59;6397319;27;20387;-65
2021/12/25 13:19:15;;;;;;;;;;;;;;;-19.81;52.86;98033.91;6378418;27;20388;-64
2021/12/25 13:22:16;;;;;;;;;;;;;;;-19.88;53.20;98035.09;6396138;27;19929;-64
2021/12/25 13:25:19;;;;;;;;;;;;;;;-19.96;53.39;98032.06;6397297;27;19976;-63
2021/12/25 13:28:21;;;;;;;;;;;;;;;-19.91;53.78;98039.91;6398864;27;19923;-64
2021/12/25 13:31:26;;;;;;;;;;;;;;;-19.99;54.17;98041.84;6401900;27;19923;-63
2021/12/25 13:34:29;;;;;;;;;;;;;;;-20.04;54.30;98039.78;6401758;27;19919;-63
2021/12/25 13:37:30;;;;;;;;;;;;;;;-20.29;54.01;98029.63;6401670;27;20336;-65
2021/12/25 13:40:31;;;;;;;;;;;;;;;-20.16;55.09;98042.28;6401313;27;19923;-63
2021/12/25 13:43:33;;;;;;;;;;;;;;;-20.31;55.00;98031.19;6401975;27;19923;-64
2021/12/25 13:46:35;;;;;;;;;;;;;;;-20.43;54.38;98029.53;6401659;27;20315;-64
2021/12/25 13:49:39;;;;;;;;;;;;;;;-20.35;54.67;98029.19;6401950;27;19923;-64
2021/12/25 13:52:46;;;;;;;;;;;;;;;-20.32;54.96;98031.91;6401755;27;20388;-63
2021/12/25 13:55:47;;;;;;;;;;;;;;;-20.33;54.96;98030.19;6401663;27;19923;-63
2021/12/25 13:58:49;;;;;;;;;;;;;;;-20.18;55.26;98026.28;6401574;27;19946;-66
2021/12/25 14:01:59;;;;;;;;;;;;;;;-20.52;55.91;98033.00;6401220;27;20311;-65
2021/12/25 14:05:05;;;;;;;;;;;;;;;-20.44;55.96;98032.78;6401119;27;19942;-63
2021/12/25 14:08:07;;;;;;;;;;;;;;;-20.74;55.29;98030.56;6401208;27;19926;-65
2021/12/25 14:11:10;;;;;;;;;;;;;;;-20.85;56.06;98020.63;6400999;27;19923;-64
2021/12/25 14:14:12;;;;;;;;;;;;;;;-20.91;56.08;98020.19;6401146;27;20356;-64
2021/12/25 14:17:13;;;;;;;;;;;;;;;-20.90;56.04;98034.44;6400357;27;19923;-64
2021/12/25 14:20:19;;;;;;;;;;;;;;;-20.81;56.02;98040.88;6400321;27;19926;-64
2021/12/25 14:23:22;;;;;;;;;;;;;;;-20.76;56.16;98034.59;6400704;27;19952;-63
2021/12/25 14:26:23;;;;;;;;;;;;;;;-20.72;55.81;98027.41;6400482;27;20446;-65
2021/12/25 14:29:27;;;;;;;;;;;;;;;-20.81;56.13;98025.88;6400807;27;19923;-64
2021/12/25 14:32:34;;;;;;;;;;;;;;;-20.76;56.79;98020.44;6400645;27;20419;-65
2021/12/25 14:35:37;;;;;;;;;;;;;;;-20.63;56.85;98029.75;6399256;27;19948;-66
2021/12/25 14:38:39;;;;;;;;;;;;;;;-20.82;56.62;98020.00;6400338;27;20487;-63
2021/12/25 14:41:41;;;;;;;;;;;;;;;-20.97;57.00;98032.25;6400322;27;19929;-64
2021/12/25 14:44:45;;;;;;;;;;;;;;;-20.97;57.25;98034.75;6400366;27;19923;-63
2021/12/25 14:47:49;;;;;;;;;;;;;;;-20.98;56.74;98027.97;6400175;27;19925;-63
2021/12/25 14:51:01;;;;;;;;;;;;;;;-21.09;56.81;98018.81;6400086;27;19923;-64
2021/12/25 14:54:03;;;;;;;;;;;;;;;-20.82;57.57;98035.00;6399248;27;19938;-63
2021/12/25 14:57:24;;;;;;;;;;;;;;;-20.98;57.05;98020.47;6399624;27;19919;-64
2021/12/25 15:00:26;;;;;;;;;;;;;;;-21.07;57.41;98033.16;6398646;27;19923;-65
2021/12/25 15:03:29;;;;;;;;;;;;;;;-21.06;56.99;98024.03;6399470;27;19923;-64
2021/12/25 15:06:30;;;;;;;;;;;;;;;-21.06;57.23;98024.03;6399865;27;19934;-66
2021/12/25 15:09:39;;;;;;;;;;;;;;;-20.80;58.08;98022.59;6399776;27;20304;-63
2021/12/25 15:12:45;;;;;;;;;;;;;;;-20.96;57.37;98015.59;6397800;27;19923;-65
2021/12/25 15:15:54;;;;;;;;;;;;;;;-21.12;57.93;98014.44;6399565;27;19923;-66
2021/12/25 15:18:55;;;;;;;;;;;;;;;-21.07;57.62;97997.28;6399173;27;19923;-65
2021/12/25 15:22:03;;;;;;;;;;;;;;;-21.15;57.69;97995.84;6398271;27;19923;-63
2021/12/25 15:25:06;;;;;;;;;;;;;;;-21.18;57.66;97999.00;6399544;27;19922;-64
2021/12/25 15:28:07;;;;;;;;;;;;;;;-21.11;58.00;97997.84;6398892;27;19930;-64
2021/12/25 15:31:19;;;;;;;;;;;;;;;-21.10;57.56;97992.06;6398852;27;19927;-62
2021/12/25 15:34:20;;;;;;;;;;;;;;;-21.12;57.39;97998.56;6399312;27;19930;-65
2021/12/25 15:37:26;;;;;;;;;;;;;;;-21.20;57.64;97994.63;6398966;27;19923;-65
2021/12/25 15:40:31;;;;;;;;;;;;;;;-21.31;57.61;97987.22;6398702;27;19922;-64
2021/12/25 15:43:36;;;;;;;;;;;;;;;-21.37;57.78;98001.78;6398718;27;19923;-63
2021/12/25 15:46:37;;;;;;;;;;;;;;;-21.46;57.92;97998.56;6398812;27;19923;-64
2021/12/25 15:49:44;;;;;;;;;;;;;;;-21.57;57.56;97986.88;6398538;27;20413;-64
2021/12/25 15:52:47;;;;;;;;;;;;;;;-21.63;57.82;97996.41;6397854;27;19923;-65
2021/12/25 15:55:48;;;;;;;;;;;;;;;-21.68;57.65;97997.69;6397875;27;19973;-66
2021/12/25 15:58:50;;;;;;;;;;;;;;;-21.40;58.04;98008.16;6398458;27;19946;-64
2021/12/25 16:01:51;;;;;;;;;;;;;;;-21.27;58.19;98007.44;6398172;27;19923;-64
2021/12/25 16:04:52;;;;;;;;;;;;;;;-21.44;57.31;97994.56;6397509;27;19923;-64
2021/12/25 16:07:57;;;;;;;;;;;;;;;-21.46;58.54;97986.06;6398039;27;20014;-64
2021/12/25 16:11:01;;;;;;;;;;;;;;;-21.65;58.81;97987.91;6398140;27;19927;-65
2021/12/25 16:14:06;;;;;;;;;;;;;;;-21.58;58.81;97992.63;6397998;27;20388;-64
2021/12/25 16:17:12;;;;;;;;;;;;;;;-21.48;58.79;97996.69;6398053;27;20376;-64
2021/12/25 16:20:15;;;;;;;;;;;;;;;-21.20;59.77;97989.63;6398106;27;19923;-64
2021/12/25 16:23:17;;;;;;;;;;;;;;;-21.45;59.72;97991.94;6396751;27;19923;-64
2021/12/25 16:26:18;;;;;;;;;;;;;;;-21.58;59.30;97996.00;6397534;27;20359;-65
2021/12/25 16:29:24;;;;;;;;;;;;;;;-21.70;59.63;97990.09;6397792;27;20311;-63
2021/12/25 16:32:25;;;;;;;;;;;;;;;-21.64;59.76;97998.03;6396920;27;20311;-64
2021/12/25 16:35:28;;;;;;;;;;;;;;;-21.73;59.86;98001.44;6396707;27;20015;-64
2021/12/25 16:38:34;;;;;;;;;;;;;;;-21.84;59.90;98000.63;6397486;27;20284;-64
2021/12/25 16:41:39;;;;;;;;;;;;;;;-21.93;60.12;97994.91;6397240;27;20342;-65
2021/12/25 16:44:41;;;;;;;;;;;;;;;-22.04;60.15;98016.56;6396573;27;19923;-65
2021/12/25 16:47:49;;;;;;;;;;;;;;;-22.05;60.22;98002.31;6397453;27;20078;-64
2021/12/25 16:50:50;;;;;;;;;;;;;;;-22.05;60.20;97994.81;6397630;27;20380;-66
2021/12/25 16:53:51;;;;;;;;;;;;;;;-22.10;60.60;97996.97;6397521;27;19919;-65
2021/12/25 16:57:10;;;;;;;;;;;;;;;-22.03;60.24;97993.34;6397251;27;19976;-64
2021/12/25 17:00:19;;;;;;;;;;;;;;;-22.05;60.08;98004.81;6397244;27;19926;-65
2021/12/25 17:03:20;;;;;;;;;;;;;;;-22.04;60.25;98001.59;6395490;27;19929;-65
2021/12/25 17:06:24;;;;;;;;;;;;;;;-22.06;60.14;98003.06;6396322;27;19923;-65